EDTL METAR and TAF | Updated Today

EDTL METAR

Lahr Airport

Observation time: 20 min. ago

EDTL 062020Z 02002KT 9999 BKN036 14/10 Q1030

Need help? Read our tutorial on how to read METARs or read the parsed version below.

Lahr Airport (EDTL) METAR

  • Weather conditions on Thu, 06 Oct 2022 20:20:00 +0000 (20 min. ago):
  • Present conditions: Dry
  • Clouds: Broken sky at 1097 meters
  • Visibility: Greater than 10 km
  • Wind: 20 degrees at 2 knots
  • Temperature: 14 celsius
  • Dew point: 10 celsius
  • Pressure: 1030 millibars
  • Remarks: None


Useful to know...

EDTL TAF

Lahr Airport

TAF EDTL 061700Z 0618/0624 VRB03KT CAVOK
Observation time: 3:40 hr. ago
Need help? Read our tutorial on how to read TAFs or read the parsed version below.

Parsed version of TAF for Lahr Airport (EDTL)

  • From 06 October at 18:00 UTC, to day 06 of the month at 24:00 UTC
  • Visibility: Greater than 10 km
  • Wind: Variable at 3